sensor_id;sensor_type;location;lat;lon;timestamp;temperature;humidity
5222;DHT22;2630;52.036;8.514;2022-10-17T00:01:34;12.70;99.90
5222;DHT22;2630;52.036;8.514;2022-10-17T00:04:00;12.70;99.90
5222;DHT22;2630;52.036;8.514;2022-10-17T00:06:25;12.70;99.90
5222;DHT22;2630;52.036;8.514;2022-10-17T00:08:51;12.60;99.90
5222;DHT22;2630;52.036;8.514;2022-10-17T00:11:19;12.60;99.90
5222;DHT22;2630;52.036;8.514;2022-10-17T00:13:46;12.60;99.90
5222;DHT22;2630;52.036;8.514;2022-10-17T00:18:38;12.60;99.90
5222;DHT22;2630;52.036;8.514;2022-10-17T00:21:04;12.50;99.90
5222;DHT22;2630;52.036;8.514;2022-10-17T00:23:30;12.50;99.90
5222;DHT22;2630;52.036;8.514;2022-10-17T00:26:04;12.60;99.90
5222;DHT22;2630;52.036;8.514;2022-10-17T00:28:30;12.60;99.90
5222;DHT22;2630;52.036;8.514;2022-10-17T00:31:01;12.50;99.90
5222;DHT22;2630;52.036;8.514;2022-10-17T00:33:27;12.50;99.90
5222;DHT22;2630;52.036;8.514;2022-10-17T00:36:08;12.40;99.90
5222;DHT22;2630;52.036;8.514;2022-10-17T00:38:34;12.40;99.90
5222;DHT22;2630;52.036;8.514;2022-10-17T00:41:00;12.40;99.90
5222;DHT22;2630;52.036;8.514;2022-10-17T00:43:26;12.30;99.90
5222;DHT22;2630;52.036;8.514;2022-10-17T00:45:54;12.30;99.90
5222;DHT22;2630;52.036;8.514;2022-10-17T00:48:21;12.30;99.90
5222;DHT22;2630;52.036;8.514;2022-10-17T00:53:15;12.40;99.90
5222;DHT22;2630;52.036;8.514;2022-10-17T00:58:14;12.40;99.90
5222;DHT22;2630;52.036;8.514;2022-10-17T01:00:41;12.40;99.90
5222;DHT22;2630;52.036;8.514;2022-10-17T01:03:07;12.40;99.90
5222;DHT22;2630;52.036;8.514;2022-10-17T01:05:33;12.40;99.90
5222;DHT22;2630;52.036;8.514;2022-10-17T01:07:59;12.50;99.90
5222;DHT22;2630;52.036;8.514;2022-10-17T01:10:39;12.40;99.90
5222;DHT22;2630;52.036;8.514;2022-10-17T01:13:14;12.40;99.90
5222;DHT22;2630;52.036;8.514;2022-10-17T01:31:55;12.30;99.90
5222;DHT22;2630;52.036;8.514;2022-10-17T01:42:18;12.20;99.90
5222;DHT22;2630;52.036;8.514;2022-10-17T01:44:48;12.20;99.90
5222;DHT22;2630;52.036;8.514;2022-10-17T01:47:19;12.20;99.90
5222;DHT22;2630;52.036;8.514;2022-10-17T01:49:48;12.20;99.90
5222;DHT22;2630;52.036;8.514;2022-10-17T01:52:21;12.20;99.90
5222;DHT22;2630;52.036;8.514;2022-10-17T01:54:52;12.10;99.90
5222;DHT22;2630;52.036;8.514;2022-10-17T01:57:30;12.10;99.90
5222;DHT22;2630;52.036;8.514;2022-10-17T01:59:56;12.10;99.90
5222;DHT22;2630;52.036;8.514;2022-10-17T02:02:23;12.00;99.90
5222;DHT22;2630;52.036;8.514;2022-10-17T02:04:51;12.00;99.90
5222;DHT22;2630;52.036;8.514;2022-10-17T02:07:17;12.00;99.90
5222;DHT22;2630;52.036;8.514;2022-10-17T02:29:07;11.90;99.90
5222;DHT22;2630;52.036;8.514;2022-10-17T02:31:39;11.90;99.90
5222;DHT22;2630;52.036;8.514;2022-10-17T02:34:15;11.90;99.90
5222;DHT22;2630;52.036;8.514;2022-10-17T02:36:47;11.90;99.90
5222;DHT22;2630;52.036;8.514;2022-10-17T02:39:14;11.90;99.90
5222;DHT22;2630;52.036;8.514;2022-10-17T02:41:42;11.90;99.90
5222;DHT22;2630;52.036;8.514;2022-10-17T02:44:09;11.90;99.90
5222;DHT22;2630;52.036;8.514;2022-10-17T02:46:37;11.90;99.90
5222;DHT22;2630;52.036;8.514;2022-10-17T02:49:20;12.00;99.90
5222;DHT22;2630;52.036;8.514;2022-10-17T02:52:11;12.00;99.90
5222;DHT22;2630;52.036;8.514;2022-10-17T02:54:46;12.00;99.90
5222;DHT22;2630;52.036;8.514;2022-10-17T02:57:37;12.00;99.90
5222;DHT22;2630;52.036;8.514;2022-10-17T03:00:07;12.10;99.90
5222;DHT22;2630;52.036;8.514;2022-10-17T03:02:38;12.20;99.90
5222;DHT22;2630;52.036;8.514;2022-10-17T03:05:04;12.60;99.90
5222;DHT22;2630;52.036;8.514;2022-10-17T03:12:22;13.40;99.90
5222;DHT22;2630;52.036;8.514;2022-10-17T03:29:23;15.80;99.90
5222;DHT22;2630;52.036;8.514;2022-10-17T03:36:44;16.40;99.90
5222;DHT22;2630;52.036;8.514;2022-10-17T03:39:09;16.50;99.90
5222;DHT22;2630;52.036;8.514;2022-10-17T03:41:35;16.60;99.90
5222;DHT22;2630;52.036;8.514;2022-10-17T03:44:01;16.70;99.90
5222;DHT22;2630;52.036;8.514;2022-10-17T03:48:52;16.90;99.90
5222;DHT22;2630;52.036;8.514;2022-10-17T03:51:18;16.90;99.90
5222;DHT22;2630;52.036;8.514;2022-10-17T03:53:44;16.90;99.90
5222;DHT22;2630;52.036;8.514;2022-10-17T03:56:10;17.00;99.90
5222;DHT22;2630;52.036;8.514;2022-10-17T03:58:36;17.10;99.90
5222;DHT22;2630;52.036;8.514;2022-10-17T04:01:10;17.10;99.90
5222;DHT22;2630;52.036;8.514;2022-10-17T04:03:36;17.10;99.90
5222;DHT22;2630;52.036;8.514;2022-10-17T04:06:03;17.10;99.90
5222;DHT22;2630;52.036;8.514;2022-10-17T04:10:59;17.10;99.90
5222;DHT22;2630;52.036;8.514;2022-10-17T04:13:26;17.10;99.90
5222;DHT22;2630;52.036;8.514;2022-10-17T04:16:01;17.10;99.90
5222;DHT22;2630;52.036;8.514;2022-10-17T04:18:27;17.20;99.90
5222;DHT22;2630;52.036;8.514;2022-10-17T04:20:53;17.20;99.90
5222;DHT22;2630;52.036;8.514;2022-10-17T04:23:19;17.20;99.90
5222;DHT22;2630;52.036;8.514;2022-10-17T04:28:10;17.30;99.90
5222;DHT22;2630;52.036;8.514;2022-10-17T04:30:36;17.30;99.90
5222;DHT22;2630;52.036;8.514;2022-10-17T04:33:02;17.30;99.90
5222;DHT22;2630;52.036;8.514;2022-10-17T04:35:28;17.30;99.90
5222;DHT22;2630;52.036;8.514;2022-10-17T04:37:53;17.30;99.90
5222;DHT22;2630;52.036;8.514;2022-10-17T04:40:19;17.20;99.90
5222;DHT22;2630;52.036;8.514;2022-10-17T04:45:11;17.40;99.90
5222;DHT22;2630;52.036;8.514;2022-10-17T04:50:04;17.40;99.90
5222;DHT22;2630;52.036;8.514;2022-10-17T04:52:29;17.40;99.90
5222;DHT22;2630;52.036;8.514;2022-10-17T04:54:56;17.50;99.90
5222;DHT22;2630;52.036;8.514;2022-10-17T04:59:48;17.50;99.90
5222;DHT22;2630;52.036;8.514;2022-10-17T05:02:13;17.50;99.90
5222;DHT22;2630;52.036;8.514;2022-10-17T05:04:39;17.40;99.90
5222;DHT22;2630;52.036;8.514;2022-10-17T05:09:30;17.50;99.90
5222;DHT22;2630;52.036;8.514;2022-10-17T05:16:48;17.50;99.90
5222;DHT22;2630;52.036;8.514;2022-10-17T05:19:14;17.50;99.90
5222;DHT22;2630;52.036;8.514;2022-10-17T05:24:11;17.60;99.90
5222;DHT22;2630;52.036;8.514;2022-10-17T05:29:04;17.70;99.90
5222;DHT22;2630;52.036;8.514;2022-10-17T05:31:30;17.70;99.90
5222;DHT22;2630;52.036;8.514;2022-10-17T05:34:02;17.90;99.90
5222;DHT22;2630;52.036;8.514;2022-10-17T05:41:20;17.90;99.90
5222;DHT22;2630;52.036;8.514;2022-10-17T05:43:45;17.90;99.90
5222;DHT22;2630;52.036;8.514;2022-10-17T05:48:37;17.80;99.90
5222;DHT22;2630;52.036;8.514;2022-10-17T05:51:07;17.80;99.90
5222;DHT22;2630;52.036;8.514;2022-10-17T05:53:35;17.80;99.90
5222;DHT22;2630;52.036;8.514;2022-10-17T05:56:03;17.80;99.90
5222;DHT22;2630;52.036;8.514;2022-10-17T05:58:30;17.80;99.90
5222;DHT22;2630;52.036;8.514;2022-10-17T06:01:01;17.80;99.90
5222;DHT22;2630;52.036;8.514;2022-10-17T06:03:28;17.80;99.90
5222;DHT22;2630;52.036;8.514;2022-10-17T06:08:20;17.80;99.90
5222;DHT22;2630;52.036;8.514;2022-10-17T06:15:43;17.70;99.90
5222;DHT22;2630;52.036;8.514;2022-10-17T06:32:45;18.20;99.90
5222;DHT22;2630;52.036;8.514;2022-10-17T06:35:11;18.30;99.90
5222;DHT22;2630;52.036;8.514;2022-10-17T06:37:36;18.30;99.90
5222;DHT22;2630;52.036;8.514;2022-10-17T06:40:03;18.30;99.90
5222;DHT22;2630;52.036;8.514;2022-10-17T06:42:28;18.40;99.90
5222;DHT22;2630;52.036;8.514;2022-10-17T06:49:46;18.50;99.90
5222;DHT22;2630;52.036;8.514;2022-10-17T06:52:11;18.50;99.90
5222;DHT22;2630;52.036;8.514;2022-10-17T06:54:37;18.60;99.90
5222;DHT22;2630;52.036;8.514;2022-10-17T06:57:03;18.70;99.90
5222;DHT22;2630;52.036;8.514;2022-10-17T06:59:28;18.70;99.90
5222;DHT22;2630;52.036;8.514;2022-10-17T07:01:54;18.70;99.90
5222;DHT22;2630;52.036;8.514;2022-10-17T07:04:19;18.80;99.90
5222;DHT22;2630;52.036;8.514;2022-10-17T07:09:11;18.80;99.90
5222;DHT22;2630;52.036;8.514;2022-10-17T07:14:04;18.80;99.90
5222;DHT22;2630;52.036;8.514;2022-10-17T07:16:30;18.80;99.90
5222;DHT22;2630;52.036;8.514;2022-10-17T07:18:55;18.80;99.90
5222;DHT22;2630;52.036;8.514;2022-10-17T07:23:47;18.80;99.90
5222;DHT22;2630;52.036;8.514;2022-10-17T07:26:14;18.80;99.90
5222;DHT22;2630;52.036;8.514;2022-10-17T07:28:42;18.80;99.90
5222;DHT22;2630;52.036;8.514;2022-10-17T07:31:14;18.70;99.90
5222;DHT22;2630;52.036;8.514;2022-10-17T07:36:06;18.80;99.90
5222;DHT22;2630;52.036;8.514;2022-10-17T07:38:32;18.80;99.90
5222;DHT22;2630;52.036;8.514;2022-10-17T07:41:00;18.80;99.90
5222;DHT22;2630;52.036;8.514;2022-10-17T07:45:53;18.90;99.90
5222;DHT22;2630;52.036;8.514;2022-10-17T07:48:20;19.00;99.90
5222;DHT22;2630;52.036;8.514;2022-10-17T07:50:46;19.10;99.90
5222;DHT22;2630;52.036;8.514;2022-10-17T07:53:11;19.10;99.90
5222;DHT22;2630;52.036;8.514;2022-10-17T08:02:55;19.20;99.90
5222;DHT22;2630;52.036;8.514;2022-10-17T08:05:21;19.20;99.90
5222;DHT22;2630;52.036;8.514;2022-10-17T08:07:46;19.20;99.90
5222;DHT22;2630;52.036;8.514;2022-10-17T08:10:13;19.10;99.90
5222;DHT22;2630;52.036;8.514;2022-10-17T08:12:39;19.10;99.90
5222;DHT22;2630;52.036;8.514;2022-10-17T08:15:05;19.10;99.90
5222;DHT22;2630;52.036;8.514;2022-10-17T08:17:34;19.20;99.90
5222;DHT22;2630;52.036;8.514;2022-10-17T08:20:00;19.20;99.90
5222;DHT22;2630;52.036;8.514;2022-10-17T08:24:52;19.20;99.90
5222;DHT22;2630;52.036;8.514;2022-10-17T08:27:17;19.20;99.90
5222;DHT22;2630;52.036;8.514;2022-10-17T08:29:48;19.20;99.90
5222;DHT22;2630;52.036;8.514;2022-10-17T08:32:17;19.20;99.90
5222;DHT22;2630;52.036;8.514;2022-10-17T08:34:43;19.30;99.90
5222;DHT22;2630;52.036;8.514;2022-10-17T08:39:34;19.50;99.90
5222;DHT22;2630;52.036;8.514;2022-10-17T08:44:56;19.60;99.90
5222;DHT22;2630;52.036;8.514;2022-10-17T08:48:15;19.70;99.90
5222;DHT22;2630;52.036;8.514;2022-10-17T08:55:47;20.20;99.90
5222;DHT22;2630;52.036;8.514;2022-10-17T09:00:47;20.50;99.90
5222;DHT22;2630;52.036;8.514;2022-10-17T09:03:50;20.50;99.90
5222;DHT22;2630;52.036;8.514;2022-10-17T09:06:25;20.50;99.90
5222;DHT22;2630;52.036;8.514;2022-10-17T09:16:54;20.70;99.90
5222;DHT22;2630;52.036;8.514;2022-10-17T09:22:13;20.80;99.90
5222;DHT22;2630;52.036;8.514;2022-10-17T09:49:55;21.80;99.90
5222;DHT22;2630;52.036;8.514;2022-10-17T10:00:05;22.30;99.90
5222;DHT22;2630;52.036;8.514;2022-10-17T10:05:03;22.40;99.90
5222;DHT22;2630;52.036;8.514;2022-10-17T10:07:36;22.40;99.90
5222;DHT22;2630;52.036;8.514;2022-10-17T10:10:04;22.30;99.90
5222;DHT22;2630;52.036;8.514;2022-10-17T10:12:33;22.30;99.90
5222;DHT22;2630;52.036;8.514;2022-10-17T10:17:35;22.40;99.90
5222;DHT22;2630;52.036;8.514;2022-10-17T10:20:23;22.60;99.90
5222;DHT22;2630;52.036;8.514;2022-10-17T10:23:12;22.70;99.90
5222;DHT22;2630;52.036;8.514;2022-10-17T10:25:51;22.90;99.90
5222;DHT22;2630;52.036;8.514;2022-10-17T10:28:18;23.30;99.90
5222;DHT22;2630;52.036;8.514;2022-10-17T10:30:49;23.70;99.90
5222;DHT22;2630;52.036;8.514;2022-10-17T10:33:18;23.80;99.90
5222;DHT22;2630;52.036;8.514;2022-10-17T10:35:52;24.00;99.90
5222;DHT22;2630;52.036;8.514;2022-10-17T10:38:19;24.00;99.90
5222;DHT22;2630;52.036;8.514;2022-10-17T10:43:37;23.60;99.90
5222;DHT22;2630;52.036;8.514;2022-10-17T10:46:26;23.40;99.90
5222;DHT22;2630;52.036;8.514;2022-10-17T10:48:59;23.30;99.90
5222;DHT22;2630;52.036;8.514;2022-10-17T10:54:04;22.80;99.90
5222;DHT22;2630;52.036;8.514;2022-10-17T10:56:41;22.90;99.90
5222;DHT22;2630;52.036;8.514;2022-10-17T10:59:09;23.00;99.90
5222;DHT22;2630;52.036;8.514;2022-10-17T11:04:38;22.60;99.90
5222;DHT22;2630;52.036;8.514;2022-10-17T11:10:02;22.50;99.90
5222;DHT22;2630;52.036;8.514;2022-10-17T11:12:38;22.70;99.90
5222;DHT22;2630;52.036;8.514;2022-10-17T11:15:24;22.70;99.90
5222;DHT22;2630;52.036;8.514;2022-10-17T11:18:05;22.60;99.90
5222;DHT22;2630;52.036;8.514;2022-10-17T11:21:09;22.60;99.90
5222;DHT22;2630;52.036;8.514;2022-10-17T11:23:47;22.70;99.90
5222;DHT22;2630;52.036;8.514;2022-10-17T11:26:19;22.60;99.90
5222;DHT22;2630;52.036;8.514;2022-10-17T11:28:54;22.60;99.90
5222;DHT22;2630;52.036;8.514;2022-10-17T11:31:22;22.60;99.90
5222;DHT22;2630;52.036;8.514;2022-10-17T11:36:21;22.50;99.90
5222;DHT22;2630;52.036;8.514;2022-10-17T11:38:59;22.50;99.90
5222;DHT22;2630;52.036;8.514;2022-10-17T11:41:45;22.60;99.90
5222;DHT22;2630;52.036;8.514;2022-10-17T11:49:49;22.60;99.90
5222;DHT22;2630;52.036;8.514;2022-10-17T11:55:27;22.60;99.90
5222;DHT22;2630;52.036;8.514;2022-10-17T12:00:55;22.50;99.90
5222;DHT22;2630;52.036;8.514;2022-10-17T12:03:32;22.50;99.90
5222;DHT22;2630;52.036;8.514;2022-10-17T12:06:40;22.40;99.90
5222;DHT22;2630;52.036;8.514;2022-10-17T12:12:02;22.20;99.90
5222;DHT22;2630;52.036;8.514;2022-10-17T12:14:42;22.00;99.90
5222;DHT22;2630;52.036;8.514;2022-10-17T12:17:22;21.90;99.90
5222;DHT22;2630;52.036;8.514;2022-10-17T12:19:49;21.90;99.90
5222;DHT22;2630;52.036;8.514;2022-10-17T12:24:55;22.00;99.90
5222;DHT22;2630;52.036;8.514;2022-10-17T12:29:48;22.20;99.90
5222;DHT22;2630;52.036;8.514;2022-10-17T12:32:15;22.20;99.90
5222;DHT22;2630;52.036;8.514;2022-10-17T12:34:53;22.20;99.90
5222;DHT22;2630;52.036;8.514;2022-10-17T12:40:59;22.20;99.90
5222;DHT22;2630;52.036;8.514;2022-10-17T12:45:57;22.10;99.90
5222;DHT22;2630;52.036;8.514;2022-10-17T12:56:08;21.90;99.90
5222;DHT22;2630;52.036;8.514;2022-10-17T12:58:34;21.80;99.90
5222;DHT22;2630;52.036;8.514;2022-10-17T13:03:32;21.80;99.90
5222;DHT22;2630;52.036;8.514;2022-10-17T13:08:40;21.60;99.90
5222;DHT22;2630;52.036;8.514;2022-10-17T13:11:08;21.50;99.90
5222;DHT22;2630;52.036;8.514;2022-10-17T13:13:47;21.50;99.90
5222;DHT22;2630;52.036;8.514;2022-10-17T13:16:36;21.40;99.90
5222;DHT22;2630;52.036;8.514;2022-10-17T13:19:11;21.30;99.90
5222;DHT22;2630;52.036;8.514;2022-10-17T13:21:37;21.20;99.90
5222;DHT22;2630;52.036;8.514;2022-10-17T13:24:40;21.20;99.90
5222;DHT22;2630;52.036;8.514;2022-10-17T13:27:30;21.30;99.90
5222;DHT22;2630;52.036;8.514;2022-10-17T13:32:24;21.20;99.90
5222;DHT22;2630;52.036;8.514;2022-10-17T13:37:33;21.30;99.90
5222;DHT22;2630;52.036;8.514;2022-10-17T13:39:59;21.40;99.90
5222;DHT22;2630;52.036;8.514;2022-10-17T13:42:36;21.40;99.90
5222;DHT22;2630;52.036;8.514;2022-10-17T13:47:36;21.50;99.90
5222;DHT22;2630;52.036;8.514;2022-10-17T13:50:04;21.40;99.90
5222;DHT22;2630;52.036;8.514;2022-10-17T13:52:30;21.50;99.90
5222;DHT22;2630;52.036;8.514;2022-10-17T13:55:08;21.50;99.90
5222;DHT22;2630;52.036;8.514;2022-10-17T13:57:35;21.50;99.90
5222;DHT22;2630;52.036;8.514;2022-10-17T14:00:05;21.40;99.90
5222;DHT22;2630;52.036;8.514;2022-10-17T14:02:33;21.30;99.90
5222;DHT22;2630;52.036;8.514;2022-10-17T14:05:19;21.20;99.90
5222;DHT22;2630;52.036;8.514;2022-10-17T14:07:57;21.20;99.90
5222;DHT22;2630;52.036;8.514;2022-10-17T14:12:56;21.20;99.90
5222;DHT22;2630;52.036;8.514;2022-10-17T14:15:26;21.20;99.90
5222;DHT22;2630;52.036;8.514;2022-10-17T14:18:01;21.20;99.90
5222;DHT22;2630;52.036;8.514;2022-10-17T14:20:27;21.10;99.90
5222;DHT22;2630;52.036;8.514;2022-10-17T14:22:55;21.10;99.90
5222;DHT22;2630;52.036;8.514;2022-10-17T14:25:34;21.10;99.90
5222;DHT22;2630;52.036;8.514;2022-10-17T14:28:01;21.10;99.90
5222;DHT22;2630;52.036;8.514;2022-10-17T14:30:38;21.10;99.90
5222;DHT22;2630;52.036;8.514;2022-10-17T14:38:06;21.00;99.90
5222;DHT22;2630;52.036;8.514;2022-10-17T14:40:33;21.00;99.90
5222;DHT22;2630;52.036;8.514;2022-10-17T14:43:05;20.90;99.90
5222;DHT22;2630;52.036;8.514;2022-10-17T14:45:33;20.80;99.90
5222;DHT22;2630;52.036;8.514;2022-10-17T14:48:03;20.80;99.90
5222;DHT22;2630;52.036;8.514;2022-10-17T14:50:30;20.90;99.90
5222;DHT22;2630;52.036;8.514;2022-10-17T14:53:20;20.80;99.90
5222;DHT22;2630;52.036;8.514;2022-10-17T14:56:00;20.80;99.90
5222;DHT22;2630;52.036;8.514;2022-10-17T14:58:29;20.80;99.90
5222;DHT22;2630;52.036;8.514;2022-10-17T15:00:59;20.80;99.90
5222;DHT22;2630;52.036;8.514;2022-10-17T15:03:25;20.70;99.90
5222;DHT22;2630;52.036;8.514;2022-10-17T15:05:51;20.70;99.90
5222;DHT22;2630;52.036;8.514;2022-10-17T15:08:19;20.70;99.90
5222;DHT22;2630;52.036;8.514;2022-10-17T15:10:45;20.80;99.90
5222;DHT22;2630;52.036;8.514;2022-10-17T15:13:12;20.80;99.90
5222;DHT22;2630;52.036;8.514;2022-10-17T15:15:39;20.80;99.90
5222;DHT22;2630;52.036;8.514;2022-10-17T15:18:05;20.70;99.90
5222;DHT22;2630;52.036;8.514;2022-10-17T15:20:32;20.80;99.90
5222;DHT22;2630;52.036;8.514;2022-10-17T15:22:59;20.80;99.90
5222;DHT22;2630;52.036;8.514;2022-10-17T15:25:26;20.80;99.90
5222;DHT22;2630;52.036;8.514;2022-10-17T15:27:52;20.80;99.90
5222;DHT22;2630;52.036;8.514;2022-10-17T15:32:48;20.70;99.90
5222;DHT22;2630;52.036;8.514;2022-10-17T15:37:41;20.70;99.90
5222;DHT22;2630;52.036;8.514;2022-10-17T15:40:28;20.70;99.90
5222;DHT22;2630;52.036;8.514;2022-10-17T15:42:54;20.60;99.90
5222;DHT22;2630;52.036;8.514;2022-10-17T15:45:23;20.60;99.90
5222;DHT22;2630;52.036;8.514;2022-10-17T15:47:53;20.60;99.90
5222;DHT22;2630;52.036;8.514;2022-10-17T15:50:20;20.50;99.90
5222;DHT22;2630;52.036;8.514;2022-10-17T15:52:47;20.40;99.90
5222;DHT22;2630;52.036;8.514;2022-10-17T15:55:15;20.40;99.90
5222;DHT22;2630;52.036;8.514;2022-10-17T15:57:43;20.30;99.90
5222;DHT22;2630;52.036;8.514;2022-10-17T16:00:16;20.30;99.90
5222;DHT22;2630;52.036;8.514;2022-10-17T16:02:43;20.30;99.90
5222;DHT22;2630;52.036;8.514;2022-10-17T16:05:17;20.30;99.90
5222;DHT22;2630;52.036;8.514;2022-10-17T16:10:14;20.20;99.90
5222;DHT22;2630;52.036;8.514;2022-10-17T16:12:40;20.20;99.90
5222;DHT22;2630;52.036;8.514;2022-10-17T16:15:14;20.10;99.90
5222;DHT22;2630;52.036;8.514;2022-10-17T16:17:40;20.10;99.90
5222;DHT22;2630;52.036;8.514;2022-10-17T16:20:06;20.00;99.90
5222;DHT22;2630;52.036;8.514;2022-10-17T16:22:33;19.90;99.90
5222;DHT22;2630;52.036;8.514;2022-10-17T16:25:03;19.90;99.90
5222;DHT22;2630;52.036;8.514;2022-10-17T16:27:38;19.90;99.90
5222;DHT22;2630;52.036;8.514;2022-10-17T16:30:05;19.80;99.90
5222;DHT22;2630;52.036;8.514;2022-10-17T16:32:31;19.80;99.90
5222;DHT22;2630;52.036;8.514;2022-10-17T16:34:56;19.70;99.90
5222;DHT22;2630;52.036;8.514;2022-10-17T16:37:24;19.70;99.90
5222;DHT22;2630;52.036;8.514;2022-10-17T16:39:50;19.70;99.90
5222;DHT22;2630;52.036;8.514;2022-10-17T16:42:18;19.60;99.90
5222;DHT22;2630;52.036;8.514;2022-10-17T16:44:45;19.50;99.90
5222;DHT22;2630;52.036;8.514;2022-10-17T16:47:10;19.40;99.90
5222;DHT22;2630;52.036;8.514;2022-10-17T16:49:36;19.40;99.90
5222;DHT22;2630;52.036;8.514;2022-10-17T16:52:03;19.30;99.90
5222;DHT22;2630;52.036;8.514;2022-10-17T16:54:28;19.20;99.90
5222;DHT22;2630;52.036;8.514;2022-10-17T16:56:54;19.10;99.90
5222;DHT22;2630;52.036;8.514;2022-10-17T16:59:22;19.10;99.90
5222;DHT22;2630;52.036;8.514;2022-10-17T17:01:47;19.00;99.90
5222;DHT22;2630;52.036;8.514;2022-10-17T17:06:39;18.90;99.90
5222;DHT22;2630;52.036;8.514;2022-10-17T17:09:05;18.90;99.90
5222;DHT22;2630;52.036;8.514;2022-10-17T17:11:30;18.90;99.90
5222;DHT22;2630;52.036;8.514;2022-10-17T17:13:57;18.80;99.90
5222;DHT22;2630;52.036;8.514;2022-10-17T17:16:25;18.70;99.90
5222;DHT22;2630;52.036;8.514;2022-10-17T17:18:59;18.70;99.90
5222;DHT22;2630;52.036;8.514;2022-10-17T17:21:26;18.60;99.90
5222;DHT22;2630;52.036;8.514;2022-10-17T17:23:53;18.60;99.90
5222;DHT22;2630;52.036;8.514;2022-10-17T17:26:20;18.60;99.90
5222;DHT22;2630;52.036;8.514;2022-10-17T17:28:47;18.60;99.90
5222;DHT22;2630;52.036;8.514;2022-10-17T17:31:16;18.60;99.90
5222;DHT22;2630;52.036;8.514;2022-10-17T17:33:42;18.60;99.90
5222;DHT22;2630;52.036;8.514;2022-10-17T17:36:12;18.50;99.90
5222;DHT22;2630;52.036;8.514;2022-10-17T17:38:38;18.50;99.90
5222;DHT22;2630;52.036;8.514;2022-10-17T17:41:05;18.40;99.90
5222;DHT22;2630;52.036;8.514;2022-10-17T17:43:31;18.40;99.90
5222;DHT22;2630;52.036;8.514;2022-10-17T17:46:00;18.30;99.90
5222;DHT22;2630;52.036;8.514;2022-10-17T17:48:25;18.30;99.90
5222;DHT22;2630;52.036;8.514;2022-10-17T17:50:51;18.30;99.90
5222;DHT22;2630;52.036;8.514;2022-10-17T17:53:17;18.20;99.90
5222;DHT22;2630;52.036;8.514;2022-10-17T17:55:43;18.20;99.90
5222;DHT22;2630;52.036;8.514;2022-10-17T17:58:08;18.20;99.90
5222;DHT22;2630;52.036;8.514;2022-10-17T18:00:35;18.20;99.90
5222;DHT22;2630;52.036;8.514;2022-10-17T18:03:02;18.10;99.90
5222;DHT22;2630;52.036;8.514;2022-10-17T18:05:27;18.10;99.90
5222;DHT22;2630;52.036;8.514;2022-10-17T18:07:53;18.10;99.90
5222;DHT22;2630;52.036;8.514;2022-10-17T18:10:19;18.00;99.90
5222;DHT22;2630;52.036;8.514;2022-10-17T18:12:44;18.10;99.90
5222;DHT22;2630;52.036;8.514;2022-10-17T18:15:10;18.00;99.90
5222;DHT22;2630;52.036;8.514;2022-10-17T18:17:36;18.00;99.90
5222;DHT22;2630;52.036;8.514;2022-10-17T18:20:03;18.00;99.90
5222;DHT22;2630;52.036;8.514;2022-10-17T18:24:54;17.90;99.90
5222;DHT22;2630;52.036;8.514;2022-10-17T18:32:13;17.80;99.90
5222;DHT22;2630;52.036;8.514;2022-10-17T18:34:39;17.80;99.90
5222;DHT22;2630;52.036;8.514;2022-10-17T18:37:05;17.80;99.90
5222;DHT22;2630;52.036;8.514;2022-10-17T18:41:57;17.70;99.90
5222;DHT22;2630;52.036;8.514;2022-10-17T18:44:22;17.70;99.90
5222;DHT22;2630;52.036;8.514;2022-10-17T18:49:16;17.60;99.90
5222;DHT22;2630;52.036;8.514;2022-10-17T18:51:45;17.60;99.90
5222;DHT22;2630;52.036;8.514;2022-10-17T19:06:26;17.60;99.90
5222;DHT22;2630;52.036;8.514;2022-10-17T19:13:50;17.70;99.90
5222;DHT22;2630;52.036;8.514;2022-10-17T19:16:29;17.70;99.90
5222;DHT22;2630;52.036;8.514;2022-10-17T19:19:20;17.70;99.90
5222;DHT22;2630;52.036;8.514;2022-10-17T19:21:42;17.70;99.90
5222;DHT22;2630;52.036;8.514;2022-10-17T19:24:12;17.70;99.90
5222;DHT22;2630;52.036;8.514;2022-10-17T19:29:05;17.70;99.90
5222;DHT22;2630;52.036;8.514;2022-10-17T19:31:32;17.70;99.90
5222;DHT22;2630;52.036;8.514;2022-10-17T19:33:58;17.60;99.90
5222;DHT22;2630;52.036;8.514;2022-10-17T19:36:27;17.60;99.90
5222;DHT22;2630;52.036;8.514;2022-10-17T19:38:53;17.60;99.90
5222;DHT22;2630;52.036;8.514;2022-10-17T19:41:19;17.60;99.90
5222;DHT22;2630;52.036;8.514;2022-10-17T19:43:45;17.50;99.90
5222;DHT22;2630;52.036;8.514;2022-10-17T19:46:16;17.60;99.90
5222;DHT22;2630;52.036;8.514;2022-10-17T19:48:43;17.50;99.90
5222;DHT22;2630;52.036;8.514;2022-10-17T19:51:12;17.50;99.90
5222;DHT22;2630;52.036;8.514;2022-10-17T19:53:38;17.50;99.90
5222;DHT22;2630;52.036;8.514;2022-10-17T19:56:04;17.50;99.90
5222;DHT22;2630;52.036;8.514;2022-10-17T19:58:31;17.50;99.90
5222;DHT22;2630;52.036;8.514;2022-10-17T20:00:58;17.50;99.90
5222;DHT22;2630;52.036;8.514;2022-10-17T20:03:27;17.50;99.90
5222;DHT22;2630;52.036;8.514;2022-10-17T20:05:53;17.50;99.90
5222;DHT22;2630;52.036;8.514;2022-10-17T20:08:19;17.50;99.90
5222;DHT22;2630;52.036;8.514;2022-10-17T20:13:11;17.40;99.90
5222;DHT22;2630;52.036;8.514;2022-10-17T20:15:37;17.50;99.90
5222;DHT22;2630;52.036;8.514;2022-10-17T20:18:04;17.50;99.90
5222;DHT22;2630;52.036;8.514;2022-10-17T20:20:30;17.50;99.90
5222;DHT22;2630;52.036;8.514;2022-10-17T20:22:56;17.50;99.90
5222;DHT22;2630;52.036;8.514;2022-10-17T20:25:21;17.50;99.90
5222;DHT22;2630;52.036;8.514;2022-10-17T20:27:47;17.50;99.90
5222;DHT22;2630;52.036;8.514;2022-10-17T20:30:13;17.50;99.90
5222;DHT22;2630;52.036;8.514;2022-10-17T20:32:38;17.50;99.90
5222;DHT22;2630;52.036;8.514;2022-10-17T20:35:05;17.50;99.90
5222;DHT22;2630;52.036;8.514;2022-10-17T20:37:36;17.40;99.90
5222;DHT22;2630;52.036;8.514;2022-10-17T20:40:02;17.40;99.90
5222;DHT22;2630;52.036;8.514;2022-10-17T20:42:28;17.40;99.90
5222;DHT22;2630;52.036;8.514;2022-10-17T20:44:55;17.40;99.90
5222;DHT22;2630;52.036;8.514;2022-10-17T20:47:21;17.40;99.90
5222;DHT22;2630;52.036;8.514;2022-10-17T20:52:13;17.30;99.90
5222;DHT22;2630;52.036;8.514;2022-10-17T20:57:05;17.30;99.90
5222;DHT22;2630;52.036;8.514;2022-10-17T20:59:31;17.30;99.90
5222;DHT22;2630;52.036;8.514;2022-10-17T21:01:58;17.30;99.90
5222;DHT22;2630;52.036;8.514;2022-10-17T21:04:24;17.20;99.90
5222;DHT22;2630;52.036;8.514;2022-10-17T21:06:50;17.20;99.90
5222;DHT22;2630;52.036;8.514;2022-10-17T21:09:16;17.20;99.90
5222;DHT22;2630;52.036;8.514;2022-10-17T21:11:42;17.10;99.90
5222;DHT22;2630;52.036;8.514;2022-10-17T21:14:09;17.20;99.90
5222;DHT22;2630;52.036;8.514;2022-10-17T21:16:36;17.10;99.90
5222;DHT22;2630;52.036;8.514;2022-10-17T21:19:04;17.10;99.90
5222;DHT22;2630;52.036;8.514;2022-10-17T21:21:34;17.10;99.90
5222;DHT22;2630;52.036;8.514;2022-10-17T21:24:05;17.20;99.90
5222;DHT22;2630;52.036;8.514;2022-10-17T21:26:33;17.10;99.90
5222;DHT22;2630;52.036;8.514;2022-10-17T21:28:59;17.10;99.90
5222;DHT22;2630;52.036;8.514;2022-10-17T21:31:33;17.10;99.90
5222;DHT22;2630;52.036;8.514;2022-10-17T21:34:04;17.10;99.90
5222;DHT22;2630;52.036;8.514;2022-10-17T21:36:30;17.10;99.90
5222;DHT22;2630;52.036;8.514;2022-10-17T21:38:56;17.10;99.90
5222;DHT22;2630;52.036;8.514;2022-10-17T21:41:24;17.10;99.90
5222;DHT22;2630;52.036;8.514;2022-10-17T21:43:55;17.00;99.90
5222;DHT22;2630;52.036;8.514;2022-10-17T21:46:21;17.00;99.90
5222;DHT22;2630;52.036;8.514;2022-10-17T21:48:47;17.00;99.90
5222;DHT22;2630;52.036;8.514;2022-10-17T21:51:15;17.00;99.90